createdAt,value
2023-05-01T00:02:03.239Z,80.71
2023-05-01T00:17:05.226Z,80.76
2023-05-01T00:32:07.422Z,80.80
2023-05-01T00:47:09.521Z,81.56
2023-05-01T01:02:12.999Z,81.45
2023-05-01T01:17:53.735Z,80.97
2023-05-01T01:32:55.730Z,81.21
2023-05-01T01:47:58.001Z,82.23
2023-05-01T02:03:01.830Z,82.21
2023-05-01T02:18:07.626Z,82.81
2023-05-01T02:33:09.864Z,83.00
2023-05-01T02:48:16.078Z,82.62
2023-05-01T03:03:18.221Z,83.59
2023-05-01T03:18:20.402Z,83.16
2023-05-01T03:33:22.418Z,81.87
2023-05-01T03:48:25.283Z,77.80
2023-05-01T04:03:27.768Z,75.04
2023-05-01T04:18:29.920Z,73.35
2023-05-01T04:33:31.904Z,74.63
2023-05-01T04:48:33.970Z,72.25
2023-05-01T05:03:36.283Z,73.23
2023-05-01T05:18:41.434Z,74.91
2023-05-01T05:33:44.911Z,72.80
2023-05-01T05:48:47.082Z,70.10
2023-05-01T06:03:49.131Z,67.74
2023-05-01T06:18:51.801Z,65.21
2023-05-01T06:33:53.839Z,62.67
2023-05-01T06:48:55.801Z,61.05
2023-05-01T07:03:57.749Z,58.03
2023-05-01T07:18:59.752Z,55.91
2023-05-01T07:34:01.788Z,54.92
2023-05-01T07:49:04.498Z,53.48
2023-05-01T08:04:06.667Z,52.16
2023-05-01T08:19:08.811Z,51.22
2023-05-01T08:34:10.780Z,50.56
2023-05-01T08:49:17.304Z,50.81
2023-05-01T09:04:19.553Z,48.46
2023-05-01T09:19:21.757Z,45.92
2023-05-01T09:34:23.740Z,44.79
2023-05-01T09:49:48.520Z,41.98
2023-05-01T10:04:58.812Z,43.60
2023-05-01T10:20:00.869Z,41.78
2023-05-01T10:35:07.456Z,40.35
2023-05-01T10:50:11.451Z,41.27
2023-05-01T11:05:13.550Z,38.88
2023-05-01T11:20:27.956Z,39.24
2023-05-01T11:35:30.705Z,38.90
2023-05-01T11:50:36.129Z,37.33
2023-05-01T12:05:40.290Z,37.13
2023-05-01T12:20:52.080Z,36.54
2023-05-01T12:35:54.257Z,36.39
2023-05-01T12:50:57.098Z,35.44
2023-05-01T13:06:03.836Z,35.96
2023-05-01T13:21:10.625Z,35.49
2023-05-01T13:36:25.429Z,34.60
2023-05-01T13:51:29.011Z,34.73
2023-05-01T14:06:31.136Z,35.06
2023-05-01T14:21:40.807Z,33.65
2023-05-01T14:36:43.799Z,33.53
2023-05-01T14:51:45.995Z,33.88
2023-05-01T15:06:48.130Z,33.85
2023-05-01T15:21:50.269Z,34.97
2023-05-01T15:36:52.723Z,34.43
2023-05-01T15:51:55.443Z,34.85
2023-05-01T16:06:57.409Z,35.31
2023-05-01T16:22:03.337Z,34.63
2023-05-01T16:37:06.418Z,35.92
2023-05-01T16:52:13.611Z,36.02
2023-05-01T17:07:15.692Z,38.63
2023-05-01T17:22:20.496Z,40.33
2023-05-01T17:37:22.767Z,41.45
2023-05-01T17:52:24.750Z,46.37
2023-05-01T18:07:27.365Z,49.24
2023-05-01T18:22:30.418Z,53.14
2023-05-01T18:37:34.942Z,54.13
2023-05-01T18:52:37.617Z,56.07
2023-05-01T19:07:40.596Z,58.55
2023-05-01T19:22:43.660Z,58.34
2023-05-01T19:37:46.879Z,58.61
2023-05-01T19:52:51.110Z,59.10
2023-05-01T20:07:53.693Z,59.85
2023-05-01T20:23:13.128Z,60.94
2023-05-01T20:38:15.331Z,63.27
2023-05-01T20:53:17.829Z,65.11
2023-05-01T21:08:20.224Z,64.48
2023-05-01T21:23:26.557Z,63.18
2023-05-01T21:38:30.123Z,63.60
2023-05-01T21:53:32.957Z,63.47
2023-05-01T22:08:35.022Z,63.39
2023-05-01T22:23:37.071Z,63.65
2023-05-01T22:38:39.112Z,64.29
2023-05-01T22:53:41.679Z,64.06
2023-05-01T23:08:43.801Z,64.14
2023-05-01T23:23:47.321Z,64.64
2023-05-01T23:38:49.889Z,64.80
2023-05-01T23:53:51.897Z,67.08
